createdAt,value
2023-01-27T00:00:56.345Z,11.55
2023-01-27T00:03:24.606Z,11.60
2023-01-27T00:05:52.460Z,12.20
2023-01-27T00:08:19.878Z,11.60
2023-01-27T00:11:07.476Z,12.52
2023-01-27T00:13:34.929Z,13.07
2023-01-27T00:16:02.679Z,11.50
2023-01-27T00:18:30.098Z,13.02
2023-01-27T00:21:15.875Z,12.07
2023-01-27T00:24:02.397Z,11.68
2023-01-27T00:26:29.833Z,11.70
2023-01-27T00:28:57.675Z,11.70
2023-01-27T00:31:43.857Z,11.95
2023-01-27T00:34:11.727Z,12.15
2023-01-27T00:36:41.184Z,12.40
2023-01-27T00:39:10.055Z,11.80
2023-01-27T00:41:38.575Z,11.30
2023-01-27T00:44:06.729Z,11.40
2023-01-27T00:46:34.763Z,12.75
2023-01-27T00:49:02.569Z,12.77
2023-01-27T00:51:31.179Z,11.25
2023-01-27T00:53:59.329Z,10.93
2023-01-27T00:56:28.226Z,12.27
2023-01-27T00:58:55.924Z,11.10
2023-01-27T01:01:23.865Z,11.90
2023-01-27T01:03:52.980Z,11.60
2023-01-27T01:06:23.526Z,12.18
2023-01-27T01:08:53.456Z,13.73
2023-01-27T01:11:21.761Z,12.37
2023-01-27T01:13:49.281Z,11.38
2023-01-27T01:16:22.944Z,12.37
2023-01-27T01:18:50.772Z,11.48
2023-01-27T01:21:18.157Z,11.70
2023-01-27T01:23:46.735Z,10.30
2023-01-27T01:26:15.920Z,11.43
2023-01-27T01:28:44.608Z,10.38
2023-01-27T01:31:15.765Z,10.93
2023-01-27T01:33:43.686Z,11.20
2023-01-27T01:36:13.346Z,12.57
2023-01-27T01:38:40.851Z,11.57
2023-01-27T01:41:12.052Z,11.48
2023-01-27T01:43:41.711Z,10.80
2023-01-27T01:46:10.784Z,11.35
2023-01-27T01:48:59.346Z,11.20
2023-01-27T01:51:32.900Z,12.77
2023-01-27T01:54:15.486Z,11.75
2023-01-27T01:56:51.085Z,11.55
2023-01-27T01:59:32.746Z,10.75
2023-01-27T02:02:04.200Z,11.98
2023-01-27T02:04:38.885Z,12.63
2023-01-27T02:07:30.867Z,11.35
2023-01-27T02:09:58.681Z,11.55
2023-01-27T02:12:26.283Z,11.65
2023-01-27T02:14:54.090Z,10.10
2023-01-27T02:17:22.242Z,11.18
2023-01-27T02:19:59.264Z,10.45
2023-01-27T02:22:57.465Z,9.60
2023-01-27T02:25:37.032Z,10.27
2023-01-27T02:28:07.491Z,9.73
2023-01-27T02:30:35.285Z,10.55
2023-01-27T02:33:12.714Z,11.43
2023-01-27T02:36:01.830Z,10.90
2023-01-27T02:38:34.499Z,10.43
2023-01-27T02:41:27.079Z,10.93
2023-01-27T02:43:54.802Z,10.38
2023-01-27T02:46:23.085Z,11.20
2023-01-27T02:48:50.570Z,10.73
2023-01-27T02:51:18.619Z,10.18
2023-01-27T02:53:47.283Z,9.52
2023-01-27T02:56:14.686Z,8.63
2023-01-27T02:58:42.594Z,8.82
2023-01-27T03:01:11.447Z,9.25
2023-01-27T03:03:44.119Z,8.02
2023-01-27T03:06:12.003Z,9.20
2023-01-27T03:08:39.495Z,8.82
2023-01-27T03:11:07.959Z,9.45
2023-01-27T03:13:37.891Z,8.18
2023-01-27T03:16:24.840Z,8.48
2023-01-27T03:18:56.596Z,8.23
2023-01-27T03:21:24.450Z,8.43
2023-01-27T03:23:52.269Z,8.43
2023-01-27T03:26:21.566Z,7.70
2023-01-27T03:29:09.419Z,7.50
2023-01-27T03:31:38.489Z,8.70
2023-01-27T03:34:06.325Z,7.93
2023-01-27T03:36:52.904Z,8.18
2023-01-27T03:39:42.254Z,7.50
2023-01-27T03:42:28.250Z,8.15
2023-01-27T03:45:14.977Z,7.72
2023-01-27T03:47:42.540Z,7.40
2023-01-27T03:50:19.284Z,7.57
2023-01-27T03:53:03.204Z,7.60
2023-01-27T03:55:32.187Z,7.12
2023-01-27T03:58:14.776Z,7.75
2023-01-27T04:00:42.765Z,7.47
2023-01-27T04:03:29.902Z,7.55
2023-01-27T04:06:16.104Z,7.57
2023-01-27T04:08:43.851Z,6.95
2023-01-27T04:11:31.752Z,7.50
2023-01-27T04:14:06.419Z,6.43
2023-01-27T04:16:34.509Z,7.37
2023-01-27T04:19:03.770Z,7.03
2023-01-27T04:21:31.179Z,7.20
2023-01-27T04:23:59.138Z,7.87
2023-01-27T04:26:33.088Z,7.10
2023-01-27T04:29:04.422Z,7.85
2023-01-27T04:31:32.724Z,6.68
2023-01-27T04:34:00.441Z,7.03
2023-01-27T04:36:27.834Z,7.90
2023-01-27T04:38:55.521Z,7.18
2023-01-27T04:41:22.910Z,7.70
2023-01-27T04:43:50.380Z,7.55
2023-01-27T04:46:18.331Z,8.23
2023-01-27T04:48:45.891Z,7.65
2023-01-27T04:51:13.291Z,7.93
2023-01-27T04:53:40.974Z,8.20
2023-01-27T04:56:20.985Z,7.82
2023-01-27T04:58:49.116Z,8.50
2023-01-27T05:01:16.688Z,7.85
2023-01-27T05:03:44.085Z,7.85
2023-01-27T05:06:12.461Z,7.07
2023-01-27T05:08:39.873Z,7.70
2023-01-27T05:11:07.487Z,7.45
2023-01-27T05:13:35.343Z,8.00
2023-01-27T05:16:14.274Z,7.40
2023-01-27T05:18:43.109Z,7.20
2023-01-27T05:21:14.193Z,6.85
2023-01-27T05:23:41.869Z,6.22
2023-01-27T05:26:20.823Z,7.40
2023-01-27T05:28:49.767Z,7.87
2023-01-27T05:31:22.478Z,6.50
2023-01-27T05:33:52.368Z,6.57
2023-01-27T05:36:21.855Z,6.53
2023-01-27T05:38:49.523Z,6.97
2023-01-27T05:41:18.546Z,6.90
2023-01-27T05:43:47.455Z,6.80
2023-01-27T05:46:16.953Z,7.40
2023-01-27T05:48:47.667Z,7.65
2023-01-27T05:51:16.540Z,9.38
2023-01-27T05:53:44.537Z,10.50
2023-01-27T05:56:19.120Z,10.82
2023-01-27T05:58:46.586Z,12.13
2023-01-27T06:01:21.343Z,11.73
2023-01-27T06:03:49.572Z,11.23
2023-01-27T06:06:19.203Z,10.35
2023-01-27T06:08:47.415Z,10.32
2023-01-27T06:11:15.877Z,11.57
2023-01-27T06:13:43.533Z,9.85
2023-01-27T06:16:13.133Z,10.13
2023-01-27T06:18:41.233Z,10.05
2023-01-27T06:21:10.208Z,10.02
2023-01-27T06:23:38.120Z,9.85
2023-01-27T06:26:10.584Z,9.43
2023-01-27T06:28:38.838Z,10.40
2023-01-27T06:31:16.294Z,11.15
2023-01-27T06:33:43.937Z,12.20
2023-01-27T06:36:14.137Z,11.55
2023-01-27T06:38:42.206Z,9.88
2023-01-27T06:41:09.965Z,10.43
2023-01-27T06:43:37.938Z,10.13
2023-01-27T06:46:06.318Z,10.75
2023-01-27T06:48:33.980Z,9.80
2023-01-27T06:51:01.764Z,10.65
2023-01-27T06:53:29.484Z,9.68
2023-01-27T06:55:58.858Z,10.00
2023-01-27T06:58:26.959Z,10.07
2023-01-27T07:00:55.174Z,7.65
2023-01-27T07:03:22.838Z,6.85
2023-01-27T07:05:50.711Z,6.82
2023-01-27T07:08:18.171Z,7.10
2023-01-27T07:10:45.839Z,6.90
2023-01-27T07:13:14.496Z,7.40
2023-01-27T07:15:42.331Z,7.40
2023-01-27T07:18:11.341Z,6.87
2023-01-27T07:20:41.041Z,7.65
2023-01-27T07:23:09.596Z,6.45
2023-01-27T07:25:37.539Z,6.53
2023-01-27T07:28:05.762Z,5.68
2023-01-27T07:30:34.230Z,6.10
2023-01-27T07:33:09.749Z,6.30
2023-01-27T07:35:38.674Z,5.78
2023-01-27T07:38:06.923Z,6.57
2023-01-27T07:40:35.711Z,6.78
2023-01-27T07:43:03.960Z,7.00
2023-01-27T07:45:34.189Z,6.03
2023-01-27T07:48:02.818Z,5.80
2023-01-27T07:50:30.679Z,4.78
2023-01-27T07:53:02.131Z,6.15
2023-01-27T07:55:30.563Z,5.62
2023-01-27T07:57:58.525Z,5.47
2023-01-27T08:00:28.193Z,6.85
2023-01-27T08:02:56.923Z,10.57
2023-01-27T08:05:25.243Z,66.05
2023-01-27T08:07:58.613Z,31.08
2023-01-27T08:10:26.902Z,19.65
2023-01-27T08:12:54.672Z,13.48
2023-01-27T08:15:22.803Z,17.95
2023-01-27T08:17:59.994Z,12.82
2023-01-27T08:20:27.881Z,11.80
2023-01-27T08:22:55.955Z,10.13
2023-01-27T08:25:23.964Z,11.20
2023-01-27T08:27:52.416Z,8.60
2023-01-27T08:30:20.719Z,8.50
2023-01-27T08:32:48.618Z,7.90
2023-01-27T08:35:16.344Z,8.02
2023-01-27T08:37:44.285Z,7.15
2023-01-27T08:40:12.605Z,7.47
2023-01-27T08:42:40.523Z,6.75
2023-01-27T08:45:11.640Z,8.75
2023-01-27T08:47:39.112Z,7.03
2023-01-27T08:50:08.251Z,7.45
2023-01-27T08:52:36.009Z,6.37
2023-01-27T08:55:03.654Z,5.68
2023-01-27T08:57:32.717Z,7.03
2023-01-27T09:00:00.935Z,6.95
2023-01-27T09:02:28.374Z,7.43
2023-01-27T09:04:55.842Z,8.63
2023-01-27T09:07:23.592Z,7.50
2023-01-27T09:09:55.984Z,7.75
2023-01-27T09:12:28.972Z,8.13
2023-01-27T09:14:58.270Z,8.88
2023-01-27T09:17:25.800Z,11.48
2023-01-27T09:19:53.525Z,10.70
2023-01-27T09:22:20.957Z,10.88
2023-01-27T09:24:48.370Z,11.25
2023-01-27T09:27:18.101Z,11.20
2023-01-27T09:29:46.626Z,10.10
2023-01-27T09:32:14.029Z,10.25
2023-01-27T09:34:43.995Z,7.70
2023-01-27T09:37:13.241Z,7.95
2023-01-27T09:39:46.205Z,4.85
2023-01-27T09:42:25.658Z,4.65
2023-01-27T09:45:15.305Z,6.68
2023-01-27T09:47:49.312Z,12.02
2023-01-27T09:50:25.770Z,7.07
2023-01-27T09:53:14.217Z,5.72
2023-01-27T09:55:49.977Z,5.00
2023-01-27T09:58:52.922Z,5.75
2023-01-27T10:01:46.306Z,5.10
2023-01-27T10:04:22.974Z,4.72
2023-01-27T10:07:27.988Z,4.53
2023-01-27T10:10:14.030Z,5.35
2023-01-27T10:13:00.125Z,5.43
2023-01-27T10:15:56.727Z,5.05
2023-01-27T10:18:59.504Z,5.35
2023-01-27T10:21:49.524Z,4.68
2023-01-27T10:24:51.104Z,5.20
2023-01-27T10:27:22.390Z,4.32
2023-01-27T10:30:05.331Z,4.30
2023-01-27T10:32:35.846Z,5.25
2023-01-27T10:35:06.132Z,5.05
2023-01-27T10:38:01.601Z,6.03
2023-01-27T10:41:02.313Z,4.70
2023-01-27T10:43:32.751Z,5.15
2023-01-27T10:46:15.444Z,5.45
2023-01-27T10:49:06.035Z,5.18
2023-01-27T10:51:37.612Z,5.32
2023-01-27T10:54:31.787Z,5.90
2023-01-27T10:57:07.240Z,6.25
2023-01-27T10:59:44.258Z,6.70
2023-01-27T11:02:24.390Z,5.03
2023-01-27T11:04:59.398Z,6.22
2023-01-27T11:07:27.212Z,6.15
2023-01-27T11:09:57.862Z,5.80
2023-01-27T11:12:41.211Z,6.10
2023-01-27T11:15:31.527Z,5.70
2023-01-27T11:18:31.199Z,6.87
2023-01-27T11:21:07.509Z,13.40
2023-01-27T11:23:40.403Z,7.45
2023-01-27T11:26:41.639Z,6.47
2023-01-27T11:29:32.648Z,9.00
2023-01-27T11:32:19.388Z,7.28
2023-01-27T11:35:04.059Z,6.43
2023-01-27T11:37:35.540Z,8.48
2023-01-27T11:40:03.867Z,7.53
2023-01-27T11:42:34.587Z,6.32
2023-01-27T11:45:02.532Z,6.62
2023-01-27T11:47:34.917Z,6.68
2023-01-27T11:50:04.545Z,5.95
2023-01-27T11:52:32.654Z,8.43
2023-01-27T11:55:07.058Z,11.82
2023-01-27T11:57:36.565Z,6.72
2023-01-27T12:00:08.231Z,6.70
2023-01-27T12:02:43.870Z,6.47
2023-01-27T12:05:36.498Z,7.50
2023-01-27T12:08:05.215Z,7.50
2023-01-27T12:10:36.466Z,7.12
2023-01-27T12:13:18.850Z,6.60
2023-01-27T12:16:00.195Z,6.72
2023-01-27T12:18:33.223Z,8.07
2023-01-27T12:21:03.516Z,8.43
2023-01-27T12:23:40.441Z,9.55
2023-01-27T12:26:10.417Z,9.00
2023-01-27T12:28:51.196Z,8.88
2023-01-27T12:31:29.430Z,11.50
2023-01-27T12:34:12.965Z,10.90
2023-01-27T12:36:42.641Z,8.90
2023-01-27T12:39:28.704Z,9.13
2023-01-27T12:41:56.159Z,10.93
2023-01-27T12:44:23.953Z,8.60
2023-01-27T12:47:01.898Z,8.30
2023-01-27T12:49:35.514Z,9.50
2023-01-27T12:52:05.155Z,8.77
2023-01-27T12:54:33.153Z,8.90
2023-01-27T12:57:04.082Z,9.60
2023-01-27T12:59:31.649Z,9.85
2023-01-27T13:02:22.654Z,10.02
2023-01-27T13:04:57.094Z,9.27
2023-01-27T13:07:30.697Z,10.55
2023-01-27T13:10:03.854Z,10.73
2023-01-27T13:12:38.078Z,10.75
2023-01-27T13:15:14.649Z,11.65
2023-01-27T13:17:53.406Z,11.90
2023-01-27T13:20:24.711Z,10.05
2023-01-27T13:23:03.958Z,11.38
2023-01-27T13:25:50.481Z,12.00
2023-01-27T13:28:23.315Z,12.73
2023-01-27T13:30:54.206Z,10.27
2023-01-27T13:33:45.594Z,11.75
2023-01-27T13:36:25.399Z,12.52
2023-01-27T13:39:01.548Z,13.23
2023-01-27T13:41:39.727Z,12.10
2023-01-27T13:44:16.103Z,16.77
2023-01-27T13:46:44.862Z,13.05
2023-01-27T13:49:37.035Z,12.35
2023-01-27T13:52:07.955Z,12.63
2023-01-27T13:54:35.698Z,11.07
2023-01-27T13:57:06.039Z,8.60
2023-01-27T13:59:45.500Z,10.48
2023-01-27T14:02:34.899Z,10.43
2023-01-27T14:05:33.330Z,6.97
2023-01-27T14:08:01.190Z,8.93
2023-01-27T14:10:35.679Z,7.97
2023-01-27T14:13:21.541Z,7.10
2023-01-27T14:16:02.479Z,8.45
2023-01-27T14:18:35.610Z,7.37
2023-01-27T14:21:34.845Z,8.07
2023-01-27T14:24:27.697Z,10.00
2023-01-27T14:27:16.191Z,6.40
2023-01-27T14:30:08.392Z,6.97
2023-01-27T14:32:45.401Z,7.93
2023-01-27T14:36:01.105Z,8.85
2023-01-27T14:38:34.291Z,11.20
2023-01-27T14:41:16.936Z,10.43
2023-01-27T14:43:50.330Z,21.12
2023-01-27T14:46:21.896Z,15.02
2023-01-27T14:49:12.148Z,14.50
2023-01-27T14:51:47.654Z,13.30
2023-01-27T14:54:30.270Z,8.05
2023-01-27T14:57:05.716Z,11.40
2023-01-27T14:59:53.573Z,8.77
2023-01-27T15:02:59.439Z,10.98
2023-01-27T15:05:36.970Z,11.65
2023-01-27T15:08:16.459Z,10.95
2023-01-27T15:10:54.284Z,11.80
2023-01-27T15:13:40.784Z,11.23
2023-01-27T15:16:42.166Z,8.75
2023-01-27T15:19:37.901Z,9.32
2023-01-27T15:22:17.819Z,10.48
2023-01-27T15:24:59.315Z,10.52
2023-01-27T15:27:27.570Z,10.18
2023-01-27T15:29:55.182Z,10.52
2023-01-27T15:32:27.610Z,10.23
2023-01-27T15:35:24.682Z,11.93
2023-01-27T15:38:08.737Z,12.52
2023-01-27T15:40:56.320Z,12.13
2023-01-27T15:43:25.391Z,11.68
2023-01-27T15:45:56.702Z,10.60
2023-01-27T15:48:30.109Z,10.68
2023-01-27T15:51:04.727Z,10.02
2023-01-27T15:53:34.111Z,10.25
2023-01-27T15:56:02.868Z,10.23
2023-01-27T15:58:36.162Z,9.05
2023-01-27T16:01:07.295Z,10.38
2023-01-27T16:03:48.119Z,12.45
2023-01-27T16:06:24.148Z,11.20
2023-01-27T16:08:56.689Z,11.63
2023-01-27T16:11:41.131Z,10.55
2023-01-27T16:14:11.885Z,11.30
2023-01-27T16:16:40.780Z,12.27
2023-01-27T16:19:11.343Z,11.30
2023-01-27T16:21:52.968Z,11.63
2023-01-27T16:24:28.599Z,11.50
2023-01-27T16:27:14.767Z,11.95
2023-01-27T16:29:47.782Z,10.90
2023-01-27T16:32:20.469Z,12.10
2023-01-27T16:34:52.007Z,11.98
2023-01-27T16:37:24.493Z,12.45
2023-01-27T16:40:08.439Z,11.45
2023-01-27T16:42:57.599Z,11.40
2023-01-27T16:45:42.197Z,12.48
2023-01-27T16:48:38.566Z,11.35
2023-01-27T16:51:08.014Z,12.18
2023-01-27T16:53:35.982Z,12.85
2023-01-27T16:56:08.029Z,11.93
2023-01-27T16:58:46.491Z,11.98
2023-01-27T17:01:22.146Z,12.15
2023-01-27T17:03:52.747Z,12.77
2023-01-27T17:06:29.729Z,12.73
2023-01-27T17:08:57.483Z,12.80
2023-01-27T17:11:32.906Z,12.37
2023-01-27T17:14:02.837Z,12.00
2023-01-27T17:16:35.400Z,12.45
2023-01-27T17:19:33.035Z,11.85
2023-01-27T17:22:07.526Z,11.65
2023-01-27T17:24:38.857Z,12.00
2023-01-27T17:27:12.954Z,11.73
2023-01-27T17:29:43.113Z,12.05
2023-01-27T17:32:21.493Z,9.30
2023-01-27T17:34:51.124Z,11.05
2023-01-27T17:37:21.133Z,10.95
2023-01-27T17:39:54.843Z,13.30
2023-01-27T17:42:25.284Z,14.70
2023-01-27T17:44:54.372Z,12.13
2023-01-27T17:47:22.706Z,12.43
2023-01-27T17:49:51.699Z,13.73
2023-01-27T17:52:24.896Z,12.40
2023-01-27T17:54:53.386Z,11.88
2023-01-27T17:57:32.817Z,12.60
2023-01-27T18:00:21.896Z,13.25
2023-01-27T18:02:59.158Z,13.82
2023-01-27T18:05:29.671Z,12.85
2023-01-27T18:07:57.987Z,15.00
2023-01-27T18:10:40.922Z,15.70
2023-01-27T18:13:18.247Z,15.48
2023-01-27T18:15:49.912Z,15.63
2023-01-27T18:18:28.269Z,14.32
2023-01-27T18:21:04.079Z,15.77
2023-01-27T18:23:35.583Z,14.80
2023-01-27T18:26:13.409Z,15.55
2023-01-27T18:28:41.675Z,15.55
2023-01-27T18:31:18.025Z,16.87
2023-01-27T18:36:35.147Z,16.65
2023-01-27T18:39:24.547Z,16.52
2023-01-27T18:41:52.281Z,16.27
2023-01-27T18:44:27.324Z,15.73
2023-01-27T18:46:56.756Z,15.90
2023-01-27T18:49:25.546Z,15.75
2023-01-27T18:51:53.755Z,17.08
2023-01-27T18:54:21.851Z,16.52
2023-01-27T18:56:50.440Z,15.65
2023-01-27T18:59:21.458Z,15.35
2023-01-27T19:01:49.745Z,14.10
2023-01-27T19:04:18.609Z,15.93
2023-01-27T19:06:48.028Z,15.85
2023-01-27T19:09:16.385Z,16.02
2023-01-27T19:11:45.356Z,17.20
2023-01-27T19:14:14.104Z,16.87
2023-01-27T19:16:47.257Z,16.35
2023-01-27T19:19:17.145Z,16.50
2023-01-27T19:21:45.667Z,15.15
2023-01-27T19:24:14.245Z,16.10
2023-01-27T19:26:44.305Z,14.38
2023-01-27T19:29:12.681Z,13.95
2023-01-27T19:31:41.499Z,13.07
2023-01-27T19:34:11.645Z,13.93
2023-01-27T19:36:45.898Z,14.35
2023-01-27T19:39:18.479Z,13.52
2023-01-27T19:41:46.997Z,13.73
2023-01-27T19:44:16.565Z,13.93
2023-01-27T19:46:45.059Z,13.80
2023-01-27T19:49:18.025Z,14.98
2023-01-27T19:51:47.666Z,15.13
2023-01-27T19:54:17.453Z,13.65
2023-01-27T19:56:47.193Z,13.70
2023-01-27T19:59:16.301Z,14.60
2023-01-27T20:01:45.982Z,13.77
2023-01-27T20:04:15.127Z,15.45
2023-01-27T20:06:42.955Z,14.40
2023-01-27T20:09:12.085Z,13.75
2023-01-27T20:11:43.222Z,14.00
2023-01-27T20:14:16.975Z,14.35
2023-01-27T20:16:47.327Z,13.85
2023-01-27T20:19:16.914Z,15.43
2023-01-27T20:21:47.194Z,13.57
2023-01-27T20:24:17.525Z,15.25
2023-01-27T20:26:46.572Z,14.55
2023-01-27T20:29:16.572Z,15.27
2023-01-27T20:31:45.245Z,14.07
2023-01-27T20:34:14.277Z,14.63
2023-01-27T20:36:43.205Z,14.45
2023-01-27T20:39:13.679Z,16.50
2023-01-27T20:41:43.780Z,14.87
2023-01-27T20:44:12.941Z,15.55
2023-01-27T20:46:42.398Z,14.70
2023-01-27T20:49:12.248Z,15.73
2023-01-27T20:51:40.869Z,15.07
2023-01-27T20:54:09.090Z,15.32
2023-01-27T20:56:37.365Z,14.73
2023-01-27T20:59:07.095Z,14.95
2023-01-27T21:01:36.097Z,16.67
2023-01-27T21:04:05.147Z,15.68
2023-01-27T21:06:33.314Z,15.57
2023-01-27T21:09:03.219Z,14.87
2023-01-27T21:11:32.265Z,14.13
2023-01-27T21:14:00.136Z,14.82
2023-01-27T21:16:28.368Z,14.95
2023-01-27T21:18:56.575Z,14.98
2023-01-27T21:21:27.340Z,15.32
2023-01-27T21:23:56.409Z,14.10
2023-01-27T21:26:25.689Z,14.05
2023-01-27T21:28:53.561Z,14.60
2023-01-27T21:31:22.368Z,13.68
2023-01-27T21:33:51.161Z,14.52
2023-01-27T21:36:19.089Z,14.18
2023-01-27T21:38:47.489Z,14.15
2023-01-27T21:41:44.930Z,14.32
2023-01-27T21:44:51.288Z,14.02
2023-01-27T21:47:20.188Z,14.32
2023-01-27T21:50:04.147Z,13.05
2023-01-27T21:52:33.631Z,12.57
2023-01-27T21:55:05.537Z,13.65
2023-01-27T21:57:34.496Z,13.88
2023-01-27T22:00:02.326Z,14.55
2023-01-27T22:03:03.011Z,14.70
2023-01-27T22:05:32.500Z,16.10
2023-01-27T22:08:01.991Z,15.63
2023-01-27T22:10:30.371Z,12.45
2023-01-27T22:12:59.834Z,13.40
2023-01-27T22:15:28.933Z,13.07
2023-01-27T22:17:57.600Z,16.73
2023-01-27T22:20:25.940Z,13.35
2023-01-27T22:22:53.710Z,14.00
2023-01-27T22:25:21.676Z,16.33
2023-01-27T22:27:49.378Z,16.15
2023-01-27T22:30:19.812Z,15.77
2023-01-27T22:32:47.600Z,13.65
2023-01-27T22:35:17.757Z,14.30
2023-01-27T22:37:46.005Z,13.02
2023-01-27T22:40:13.900Z,12.57
2023-01-27T22:42:41.545Z,11.93
2023-01-27T22:45:10.017Z,12.70
2023-01-27T22:47:37.458Z,13.20
2023-01-27T22:50:05.470Z,14.27
2023-01-27T22:52:36.280Z,13.88
2023-01-27T22:55:05.238Z,14.35
2023-01-27T22:57:33.195Z,12.43
2023-01-27T23:00:00.637Z,13.55
2023-01-27T23:02:29.923Z,14.50
2023-01-27T23:04:58.455Z,13.38
2023-01-27T23:07:26.283Z,14.27
2023-01-27T23:09:53.718Z,13.45
2023-01-27T23:12:21.424Z,14.48
2023-01-27T23:14:48.846Z,14.65
2023-01-27T23:17:16.268Z,14.43
2023-01-27T23:19:44.018Z,14.75
2023-01-27T23:22:11.784Z,14.38
2023-01-27T23:24:39.660Z,14.10
2023-01-27T23:27:07.330Z,15.23
2023-01-27T23:29:34.749Z,16.30
2023-01-27T23:32:02.236Z,14.60
2023-01-27T23:34:30.983Z,15.68
2023-01-27T23:36:58.433Z,16.20
2023-01-27T23:39:25.843Z,16.77
2023-01-27T23:41:53.549Z,15.57
2023-01-27T23:44:21.029Z,17.30
2023-01-27T23:46:48.446Z,16.75
2023-01-27T23:49:16.168Z,16.73
2023-01-27T23:51:43.571Z,18.35
2023-01-27T23:54:11.114Z,18.00
2023-01-27T23:56:38.813Z,17.42
2023-01-27T23:59:06.273Z,17.85
